sensor_id;sensor_type;location;lat;lon;timestamp;P1;durP1;ratioP1;P2;durP2;ratioP2
32788;SDS011;19141;48.980;8.410;2022-07-23T04:22:45;14.20;;;6.97;;
32788;SDS011;19141;48.980;8.410;2022-07-23T04:25:10;10.82;;;6.72;;
32788;SDS011;19141;48.980;8.410;2022-07-23T04:27:36;11.70;;;6.78;;
32788;SDS011;19141;48.980;8.410;2022-07-23T04:30:02;9.18;;;6.15;;
32788;SDS011;19141;48.980;8.410;2022-07-23T04:32:28;8.95;;;6.40;;
32788;SDS011;19141;48.980;8.410;2022-07-23T04:34:54;9.40;;;6.45;;
32788;SDS011;19141;48.980;8.410;2022-07-23T04:37:19;8.65;;;6.20;;
32788;SDS011;19141;48.980;8.410;2022-07-23T04:39:45;10.02;;;6.97;;
32788;SDS011;19141;48.980;8.410;2022-07-23T04:42:11;9.20;;;6.07;;
32788;SDS011;19141;48.980;8.410;2022-07-23T04:44:36;7.93;;;5.78;;
32788;SDS011;19141;48.980;8.410;2022-07-23T04:47:03;12.13;;;7.07;;
32788;SDS011;19141;48.980;8.410;2022-07-23T04:49:29;7.82;;;6.03;;
32788;SDS011;19141;48.980;8.410;2022-07-23T04:51:54;8.02;;;6.03;;
32788;SDS011;19141;48.980;8.410;2022-07-23T04:54:20;10.02;;;6.80;;
32788;SDS011;19141;48.980;8.410;2022-07-23T04:56:45;10.27;;;6.50;;
32788;SDS011;19141;48.980;8.410;2022-07-23T04:59:11;7.75;;;6.03;;
32788;SDS011;19141;48.980;8.410;2022-07-23T05:01:37;10.75;;;6.22;;
32788;SDS011;19141;48.980;8.410;2022-07-23T05:04:02;9.50;;;6.22;;
32788;SDS011;19141;48.980;8.410;2022-07-23T05:06:32;9.95;;;5.78;;
32788;SDS011;19141;48.980;8.410;2022-07-23T05:08:57;10.73;;;6.13;;
32788;SDS011;19141;48.980;8.410;2022-07-23T05:11:23;8.23;;;6.03;;
32788;SDS011;19141;48.980;8.410;2022-07-23T05:13:48;7.65;;;5.95;;
32788;SDS011;19141;48.980;8.410;2022-07-23T05:16:14;8.82;;;5.75;;
32788;SDS011;19141;48.980;8.410;2022-07-23T05:18:40;7.95;;;5.65;;
32788;SDS011;19141;48.980;8.410;2022-07-23T05:21:06;8.07;;;5.53;;
32788;SDS011;19141;48.980;8.410;2022-07-23T05:23:33;9.52;;;6.45;;
32788;SDS011;19141;48.980;8.410;2022-07-23T05:25:59;9.03;;;6.27;;
32788;SDS011;19141;48.980;8.410;2022-07-23T05:28:26;11.07;;;7.22;;
32788;SDS011;19141;48.980;8.410;2022-07-23T05:30:52;8.40;;;6.03;;
32788;SDS011;19141;48.980;8.410;2022-07-23T05:33:18;9.65;;;6.13;;
32788;SDS011;19141;48.980;8.410;2022-07-23T05:35:44;9.05;;;6.03;;
32788;SDS011;19141;48.980;8.410;2022-07-23T05:38:31;8.18;;;5.70;;
32788;SDS011;19141;48.980;8.410;2022-07-23T05:40:58;9.82;;;6.05;;
32788;SDS011;19141;48.980;8.410;2022-07-23T05:43:25;8.77;;;5.70;;
32788;SDS011;19141;48.980;8.410;2022-07-23T05:45:51;7.65;;;5.93;;
32788;SDS011;19141;48.980;8.410;2022-07-23T05:48:17;8.93;;;6.25;;
32788;SDS011;19141;48.980;8.410;2022-07-23T05:51:03;9.20;;;6.22;;
32788;SDS011;19141;48.980;8.410;2022-07-23T05:53:32;7.63;;;5.75;;
32788;SDS011;19141;48.980;8.410;2022-07-23T05:56:00;10.93;;;6.45;;
32788;SDS011;19141;48.980;8.410;2022-07-23T05:58:28;8.45;;;5.93;;
32788;SDS011;19141;48.980;8.410;2022-07-23T06:00:53;7.65;;;5.70;;
32788;SDS011;19141;48.980;8.410;2022-07-23T06:03:19;8.60;;;6.30;;
32788;SDS011;19141;48.980;8.410;2022-07-23T06:05:45;11.13;;;6.68;;
32788;SDS011;19141;48.980;8.410;2022-07-23T06:08:11;9.38;;;6.90;;
32788;SDS011;19141;48.980;8.410;2022-07-23T06:10:36;15.25;;;7.10;;
32788;SDS011;19141;48.980;8.410;2022-07-23T06:13:02;10.30;;;7.25;;
32788;SDS011;19141;48.980;8.410;2022-07-23T06:15:27;14.07;;;7.70;;
32788;SDS011;19141;48.980;8.410;2022-07-23T06:17:53;10.50;;;7.35;;
32788;SDS011;19141;48.980;8.410;2022-07-23T06:20:19;12.50;;;7.38;;
32788;SDS011;19141;48.980;8.410;2022-07-23T06:22:44;9.68;;;7.25;;
32788;SDS011;19141;48.980;8.410;2022-07-23T06:25:10;9.95;;;7.20;;
32788;SDS011;19141;48.980;8.410;2022-07-23T06:27:36;12.05;;;7.40;;
32788;SDS011;19141;48.980;8.410;2022-07-23T06:30:01;11.27;;;7.40;;
32788;SDS011;19141;48.980;8.410;2022-07-23T06:32:27;10.70;;;7.53;;
32788;SDS011;19141;48.980;8.410;2022-07-23T06:34:52;14.23;;;8.43;;
32788;SDS011;19141;48.980;8.410;2022-07-23T06:37:20;13.50;;;7.95;;
32788;SDS011;19141;48.980;8.410;2022-07-23T06:39:45;13.27;;;9.02;;
32788;SDS011;19141;48.980;8.410;2022-07-23T06:42:11;11.65;;;8.02;;
32788;SDS011;19141;48.980;8.410;2022-07-23T06:44:42;13.95;;;8.48;;
32788;SDS011;19141;48.980;8.410;2022-07-23T06:47:07;10.65;;;7.95;;
32788;SDS011;19141;48.980;8.410;2022-07-23T06:49:34;12.00;;;8.93;;
32788;SDS011;19141;48.980;8.410;2022-07-23T06:51:59;13.93;;;9.63;;
32788;SDS011;19141;48.980;8.410;2022-07-23T06:54:25;13.43;;;8.93;;
32788;SDS011;19141;48.980;8.410;2022-07-23T06:56:50;14.30;;;9.05;;
32788;SDS011;19141;48.980;8.410;2022-07-23T06:59:16;12.45;;;9.30;;
32788;SDS011;19141;48.980;8.410;2022-07-23T07:01:42;13.05;;;8.88;;
32788;SDS011;19141;48.980;8.410;2022-07-23T07:04:07;15.55;;;8.75;;
32788;SDS011;19141;48.980;8.410;2022-07-23T07:06:33;14.15;;;8.70;;
32788;SDS011;19141;48.980;8.410;2022-07-23T07:08:59;14.30;;;8.45;;
32788;SDS011;19141;48.980;8.410;2022-07-23T07:11:24;11.55;;;7.82;;
32788;SDS011;19141;48.980;8.410;2022-07-23T07:13:50;11.88;;;7.97;;
32788;SDS011;19141;48.980;8.410;2022-07-23T07:16:16;14.55;;;8.50;;
32788;SDS011;19141;48.980;8.410;2022-07-23T07:18:42;14.43;;;8.60;;
32788;SDS011;19141;48.980;8.410;2022-07-23T07:21:07;15.48;;;9.20;;
32788;SDS011;19141;48.980;8.410;2022-07-23T07:23:32;14.18;;;8.50;;
32788;SDS011;19141;48.980;8.410;2022-07-23T07:25:58;11.48;;;8.23;;
32788;SDS011;19141;48.980;8.410;2022-07-23T07:28:23;15.38;;;9.70;;
32788;SDS011;19141;48.980;8.410;2022-07-23T07:30:49;14.95;;;9.77;;
32788;SDS011;19141;48.980;8.410;2022-07-23T07:33:14;14.07;;;9.38;;
32788;SDS011;19141;48.980;8.410;2022-07-23T07:35:40;13.50;;;9.23;;
32788;SDS011;19141;48.980;8.410;2022-07-23T07:38:05;12.85;;;8.88;;
32788;SDS011;19141;48.980;8.410;2022-07-23T07:40:31;14.18;;;8.98;;
32788;SDS011;19141;48.980;8.410;2022-07-23T07:42:56;13.52;;;8.88;;
32788;SDS011;19141;48.980;8.410;2022-07-23T07:45:22;12.55;;;9.38;;
32788;SDS011;19141;48.980;8.410;2022-07-23T07:47:48;14.23;;;8.85;;
32788;SDS011;19141;48.980;8.410;2022-07-23T07:50:14;12.35;;;8.52;;
32788;SDS011;19141;48.980;8.410;2022-07-23T07:52:39;16.42;;;10.02;;
32788;SDS011;19141;48.980;8.410;2022-07-23T07:55:06;13.60;;;8.90;;
32788;SDS011;19141;48.980;8.410;2022-07-23T07:57:32;13.25;;;8.73;;
32788;SDS011;19141;48.980;8.410;2022-07-23T07:59:58;10.65;;;8.50;;
32788;SDS011;19141;48.980;8.410;2022-07-23T08:02:23;12.65;;;8.15;;
32788;SDS011;19141;48.980;8.410;2022-07-23T08:04:49;10.32;;;8.10;;
32788;SDS011;19141;48.980;8.410;2022-07-23T08:07:15;11.68;;;8.27;;
32788;SDS011;19141;48.980;8.410;2022-07-23T08:09:40;11.82;;;8.15;;
32788;SDS011;19141;48.980;8.410;2022-07-23T08:12:06;11.77;;;8.15;;
32788;SDS011;19141;48.980;8.410;2022-07-23T08:14:32;11.95;;;8.13;;
32788;SDS011;19141;48.980;8.410;2022-07-23T08:16:57;20.90;;;13.10;;
32788;SDS011;19141;48.980;8.410;2022-07-23T08:19:23;12.68;;;9.25;;
32788;SDS011;19141;48.980;8.410;2022-07-23T08:21:48;14.88;;;8.90;;
32788;SDS011;19141;48.980;8.410;2022-07-23T08:24:14;13.93;;;8.95;;
32788;SDS011;19141;48.980;8.410;2022-07-23T08:26:39;13.23;;;8.77;;
32788;SDS011;19141;48.980;8.410;2022-07-23T08:29:06;13.18;;;8.95;;
32788;SDS011;19141;48.980;8.410;2022-07-23T08:31:31;13.70;;;9.27;;
32788;SDS011;19141;48.980;8.410;2022-07-23T08:33:58;11.82;;;8.93;;
32788;SDS011;19141;48.980;8.410;2022-07-23T08:36:24;15.65;;;9.70;;
32788;SDS011;19141;48.980;8.410;2022-07-23T08:38:52;12.43;;;8.27;;
32788;SDS011;19141;48.980;8.410;2022-07-23T08:41:19;13.20;;;9.07;;
32788;SDS011;19141;48.980;8.410;2022-07-23T08:43:44;12.63;;;9.68;;
32788;SDS011;19141;48.980;8.410;2022-07-23T08:46:10;12.00;;;8.48;;
32788;SDS011;19141;48.980;8.410;2022-07-23T08:48:38;12.55;;;8.55;;
32788;SDS011;19141;48.980;8.410;2022-07-23T08:51:04;11.65;;;8.18;;
32788;SDS011;19141;48.980;8.410;2022-07-23T08:53:31;11.55;;;8.43;;
32788;SDS011;19141;48.980;8.410;2022-07-23T08:56:00;14.57;;;9.23;;
32788;SDS011;19141;48.980;8.410;2022-07-23T08:58:28;9.50;;;7.85;;
32788;SDS011;19141;48.980;8.410;2022-07-23T09:00:54;11.45;;;7.45;;
32788;SDS011;19141;48.980;8.410;2022-07-23T09:03:25;11.82;;;7.53;;
32788;SDS011;19141;48.980;8.410;2022-07-23T09:05:52;13.73;;;8.65;;
32788;SDS011;19141;48.980;8.410;2022-07-23T09:08:20;10.95;;;7.82;;
32788;SDS011;19141;48.980;8.410;2022-07-23T09:10:49;10.57;;;8.30;;
32788;SDS011;19141;48.980;8.410;2022-07-23T09:13:23;14.88;;;8.40;;
32788;SDS011;19141;48.980;8.410;2022-07-23T09:15:50;14.43;;;8.55;;
32788;SDS011;19141;48.980;8.410;2022-07-23T09:18:16;10.55;;;8.07;;
32788;SDS011;19141;48.980;8.410;2022-07-23T09:20:43;11.38;;;8.43;;
32788;SDS011;19141;48.980;8.410;2022-07-23T09:23:09;11.77;;;8.00;;
32788;SDS011;19141;48.980;8.410;2022-07-23T09:25:34;9.68;;;7.15;;
32788;SDS011;19141;48.980;8.410;2022-07-23T09:28:00;9.57;;;7.45;;
32788;SDS011;19141;48.980;8.410;2022-07-23T09:30:31;9.57;;;7.40;;
32788;SDS011;19141;48.980;8.410;2022-07-23T09:33:04;11.63;;;7.53;;
32788;SDS011;19141;48.980;8.410;2022-07-23T09:38:09;10.00;;;7.75;;
32788;SDS011;19141;48.980;8.410;2022-07-23T09:40:34;16.10;;;8.10;;
32788;SDS011;19141;48.980;8.410;2022-07-23T09:43:00;9.02;;;7.30;;
32788;SDS011;19141;48.980;8.410;2022-07-23T09:45:25;11.32;;;7.60;;
32788;SDS011;19141;48.980;8.410;2022-07-23T09:47:51;9.48;;;7.55;;
32788;SDS011;19141;48.980;8.410;2022-07-23T09:50:35;8.70;;;7.20;;
32788;SDS011;19141;48.980;8.410;2022-07-23T09:53:00;9.80;;;7.47;;
32788;SDS011;19141;48.980;8.410;2022-07-23T09:55:30;8.30;;;6.65;;
32788;SDS011;19141;48.980;8.410;2022-07-23T09:58:07;9.40;;;7.10;;
32788;SDS011;19141;48.980;8.410;2022-07-23T10:00:37;8.70;;;7.40;;
32788;SDS011;19141;48.980;8.410;2022-07-23T10:03:03;7.32;;;6.47;;
32788;SDS011;19141;48.980;8.410;2022-07-23T10:05:39;9.18;;;6.85;;
32788;SDS011;19141;48.980;8.410;2022-07-23T10:08:27;7.35;;;6.55;;
32788;SDS011;19141;48.980;8.410;2022-07-23T10:11:25;7.95;;;5.90;;
32788;SDS011;19141;48.980;8.410;2022-07-23T10:14:01;7.97;;;6.60;;
32788;SDS011;19141;48.980;8.410;2022-07-23T10:16:40;7.05;;;6.35;;
32788;SDS011;19141;48.980;8.410;2022-07-23T10:19:06;11.20;;;6.82;;
32788;SDS011;19141;48.980;8.410;2022-07-23T10:21:40;11.93;;;7.22;;
32788;SDS011;19141;48.980;8.410;2022-07-23T10:30:06;8.27;;;6.32;;
32788;SDS011;19141;48.980;8.410;2022-07-23T10:40:53;6.70;;;5.93;;
32788;SDS011;19141;48.980;8.410;2022-07-23T10:43:22;6.75;;;5.65;;
32788;SDS011;19141;48.980;8.410;2022-07-23T10:45:48;7.40;;;5.60;;
32788;SDS011;19141;48.980;8.410;2022-07-23T10:48:18;7.85;;;6.10;;
32788;SDS011;19141;48.980;8.410;2022-07-23T10:59:21;7.05;;;5.72;;
32788;SDS011;19141;48.980;8.410;2022-07-23T11:01:47;6.22;;;5.63;;
32788;SDS011;19141;48.980;8.410;2022-07-23T11:04:12;6.63;;;5.97;;
32788;SDS011;19141;48.980;8.410;2022-07-23T11:15:21;7.18;;;5.35;;
32788;SDS011;19141;48.980;8.410;2022-07-23T11:25:08;6.90;;;6.30;;
32788;SDS011;19141;48.980;8.410;2022-07-23T11:30:07;7.18;;;5.95;;
32788;SDS011;19141;48.980;8.410;2022-07-23T11:32:35;8.05;;;6.10;;
32788;SDS011;19141;48.980;8.410;2022-07-23T11:35:25;6.30;;;5.70;;
32788;SDS011;19141;48.980;8.410;2022-07-23T11:37:54;6.45;;;5.60;;
32788;SDS011;19141;48.980;8.410;2022-07-23T11:40:27;6.13;;;5.53;;
32788;SDS011;19141;48.980;8.410;2022-07-23T11:43:03;5.47;;;4.97;;
32788;SDS011;19141;48.980;8.410;2022-07-23T11:45:32;7.35;;;6.65;;
32788;SDS011;19141;48.980;8.410;2022-07-23T11:48:00;5.68;;;5.10;;
32788;SDS011;19141;48.980;8.410;2022-07-23T11:50:26;7.18;;;6.47;;
32788;SDS011;19141;48.980;8.410;2022-07-23T11:52:52;6.57;;;5.87;;
32788;SDS011;19141;48.980;8.410;2022-07-23T11:55:19;6.13;;;5.53;;
32788;SDS011;19141;48.980;8.410;2022-07-23T11:57:44;5.30;;;4.80;;
32788;SDS011;19141;48.980;8.410;2022-07-23T12:02:39;5.60;;;5.10;;
32788;SDS011;19141;48.980;8.410;2022-07-23T12:05:07;6.78;;;5.72;;
32788;SDS011;19141;48.980;8.410;2022-07-23T12:07:36;5.80;;;5.00;;
32788;SDS011;19141;48.980;8.410;2022-07-23T12:12:40;5.72;;;5.15;;
32788;SDS011;19141;48.980;8.410;2022-07-23T12:15:08;6.78;;;5.05;;
32788;SDS011;19141;48.980;8.410;2022-07-23T12:17:35;5.88;;;5.28;;
32788;SDS011;19141;48.980;8.410;2022-07-23T12:20:03;6.03;;;5.00;;
32788;SDS011;19141;48.980;8.410;2022-07-23T12:22:35;7.07;;;5.38;;
32788;SDS011;19141;48.980;8.410;2022-07-23T12:25:06;5.70;;;5.10;;
32788;SDS011;19141;48.980;8.410;2022-07-23T12:27:34;7.45;;;4.82;;
32788;SDS011;19141;48.980;8.410;2022-07-23T12:30:16;6.33;;;4.67;;
32788;SDS011;19141;48.980;8.410;2022-07-23T12:32:45;4.95;;;4.50;;
32788;SDS011;19141;48.980;8.410;2022-07-23T12:35:12;5.20;;;4.45;;
32788;SDS011;19141;48.980;8.410;2022-07-23T12:37:39;5.00;;;4.53;;
32788;SDS011;19141;48.980;8.410;2022-07-23T12:42:55;5.63;;;4.32;;
32788;SDS011;19141;48.980;8.410;2022-07-23T12:45:23;5.32;;;4.82;;
32788;SDS011;19141;48.980;8.410;2022-07-23T12:47:51;5.32;;;4.80;;
32788;SDS011;19141;48.980;8.410;2022-07-23T12:50:38;5.78;;;4.85;;
32788;SDS011;19141;48.980;8.410;2022-07-23T12:53:09;5.50;;;4.10;;
32788;SDS011;19141;48.980;8.410;2022-07-23T12:56:14;5.25;;;4.75;;
32788;SDS011;19141;48.980;8.410;2022-07-23T13:06:20;4.70;;;4.30;;
32788;SDS011;19141;48.980;8.410;2022-07-23T13:08:45;7.10;;;5.73;;
32788;SDS011;19141;48.980;8.410;2022-07-23T13:11:11;5.73;;;4.83;;
32788;SDS011;19141;48.980;8.410;2022-07-23T13:13:36;5.70;;;5.00;;
32788;SDS011;19141;48.980;8.410;2022-07-23T13:16:02;5.63;;;5.10;;
32788;SDS011;19141;48.980;8.410;2022-07-23T13:18:28;5.50;;;4.88;;
32788;SDS011;19141;48.980;8.410;2022-07-23T13:20:54;5.00;;;4.60;;
32788;SDS011;19141;48.980;8.410;2022-07-23T13:23:20;7.25;;;4.90;;
32788;SDS011;19141;48.980;8.410;2022-07-23T13:25:46;5.40;;;4.65;;
32788;SDS011;19141;48.980;8.410;2022-07-23T13:28:13;5.07;;;4.55;;
32788;SDS011;19141;48.980;8.410;2022-07-23T13:30:40;4.95;;;4.45;;
32788;SDS011;19141;48.980;8.410;2022-07-23T13:33:06;5.70;;;5.20;;
32788;SDS011;19141;48.980;8.410;2022-07-23T13:35:33;6.60;;;4.50;;
32788;SDS011;19141;48.980;8.410;2022-07-23T13:37:59;5.60;;;4.53;;
32788;SDS011;19141;48.980;8.410;2022-07-23T13:40:25;4.85;;;4.45;;
32788;SDS011;19141;48.980;8.410;2022-07-23T13:42:51;4.73;;;4.33;;
32788;SDS011;19141;48.980;8.410;2022-07-23T13:45:16;5.90;;;4.80;;
32788;SDS011;19141;48.980;8.410;2022-07-23T13:47:42;5.73;;;4.50;;
32788;SDS011;19141;48.980;8.410;2022-07-23T13:50:07;5.60;;;4.70;;
32788;SDS011;19141;48.980;8.410;2022-07-23T13:52:33;5.17;;;4.70;;
32788;SDS011;19141;48.980;8.410;2022-07-23T13:55:08;5.63;;;4.83;;
32788;SDS011;19141;48.980;8.410;2022-07-23T13:57:34;5.55;;;4.78;;
32788;SDS011;19141;48.980;8.410;2022-07-23T13:59:59;5.63;;;5.13;;
32788;SDS011;19141;48.980;8.410;2022-07-23T14:02:25;5.25;;;4.75;;
32788;SDS011;19141;48.980;8.410;2022-07-23T14:04:51;5.30;;;4.90;;
32788;SDS011;19141;48.980;8.410;2022-07-23T14:07:16;5.68;;;4.82;;
32788;SDS011;19141;48.980;8.410;2022-07-23T14:09:42;5.10;;;4.70;;
32788;SDS011;19141;48.980;8.410;2022-07-23T14:12:07;5.68;;;4.80;;
32788;SDS011;19141;48.980;8.410;2022-07-23T14:14:33;5.75;;;4.82;;
32788;SDS011;19141;48.980;8.410;2022-07-23T14:16:59;6.28;;;5.22;;
32788;SDS011;19141;48.980;8.410;2022-07-23T14:19:24;5.05;;;4.55;;
32788;SDS011;19141;48.980;8.410;2022-07-23T14:21:50;5.10;;;4.60;;
32788;SDS011;19141;48.980;8.410;2022-07-23T14:24:15;5.00;;;4.60;;
32788;SDS011;19141;48.980;8.410;2022-07-23T14:26:41;5.45;;;4.90;;
32788;SDS011;19141;48.980;8.410;2022-07-23T14:29:06;6.28;;;5.00;;
32788;SDS011;19141;48.980;8.410;2022-07-23T14:31:32;7.38;;;4.57;;
32788;SDS011;19141;48.980;8.410;2022-07-23T14:33:58;5.95;;;4.63;;
32788;SDS011;19141;48.980;8.410;2022-07-23T14:36:24;6.47;;;4.72;;
32788;SDS011;19141;48.980;8.410;2022-07-23T14:38:50;5.35;;;4.78;;
32788;SDS011;19141;48.980;8.410;2022-07-23T14:41:16;6.30;;;5.03;;
32788;SDS011;19141;48.980;8.410;2022-07-23T14:43:41;5.70;;;4.43;;
32788;SDS011;19141;48.980;8.410;2022-07-23T14:46:07;5.55;;;4.78;;
32788;SDS011;19141;48.980;8.410;2022-07-23T14:48:33;6.53;;;5.20;;
32788;SDS011;19141;48.980;8.410;2022-07-23T14:50:58;5.03;;;4.57;;
32788;SDS011;19141;48.980;8.410;2022-07-23T14:53:23;5.43;;;4.88;;
32788;SDS011;19141;48.980;8.410;2022-07-23T14:55:49;4.90;;;4.50;;
32788;SDS011;19141;48.980;8.410;2022-07-23T14:58:14;5.30;;;4.88;;
32788;SDS011;19141;48.980;8.410;2022-07-23T15:00:40;5.07;;;4.68;;
32788;SDS011;19141;48.980;8.410;2022-07-23T15:03:05;5.70;;;4.87;;
32788;SDS011;19141;48.980;8.410;2022-07-23T15:05:31;6.32;;;5.18;;
32788;SDS011;19141;48.980;8.410;2022-07-23T15:07:56;5.75;;;5.15;;
32788;SDS011;19141;48.980;8.410;2022-07-23T15:10:22;5.40;;;4.90;;
32788;SDS011;19141;48.980;8.410;2022-07-23T15:12:47;5.68;;;4.82;;
32788;SDS011;19141;48.980;8.410;2022-07-23T15:15:13;5.82;;;5.03;;
32788;SDS011;19141;48.980;8.410;2022-07-23T15:17:38;5.55;;;5.05;;
32788;SDS011;19141;48.980;8.410;2022-07-23T15:20:04;5.57;;;4.97;;
32788;SDS011;19141;48.980;8.410;2022-07-23T15:22:30;6.27;;;5.03;;
32788;SDS011;19141;48.980;8.410;2022-07-23T15:24:56;5.68;;;5.13;;
32788;SDS011;19141;48.980;8.410;2022-07-23T15:27:21;7.10;;;5.43;;
32788;SDS011;19141;48.980;8.410;2022-07-23T15:29:47;8.82;;;5.57;;
32788;SDS011;19141;48.980;8.410;2022-07-23T15:32:12;5.43;;;4.93;;
32788;SDS011;19141;48.980;8.410;2022-07-23T15:34:38;6.22;;;5.60;;
32788;SDS011;19141;48.980;8.410;2022-07-23T15:37:04;6.30;;;5.70;;
32788;SDS011;19141;48.980;8.410;2022-07-23T15:39:32;6.38;;;5.50;;
32788;SDS011;19141;48.980;8.410;2022-07-23T15:41:58;7.32;;;6.72;;
32788;SDS011;19141;48.980;8.410;2022-07-23T15:44:24;6.40;;;5.75;;
32788;SDS011;19141;48.980;8.410;2022-07-23T15:46:50;5.97;;;5.38;;
32788;SDS011;19141;48.980;8.410;2022-07-23T15:49:16;6.25;;;5.50;;
32788;SDS011;19141;48.980;8.410;2022-07-23T15:51:41;7.93;;;6.35;;
32788;SDS011;19141;48.980;8.410;2022-07-23T15:54:07;6.45;;;5.85;;
32788;SDS011;19141;48.980;8.410;2022-07-23T15:56:32;6.68;;;5.97;;
32788;SDS011;19141;48.980;8.410;2022-07-23T15:58:57;6.68;;;5.60;;
32788;SDS011;19141;48.980;8.410;2022-07-23T16:01:23;7.97;;;6.32;;
32788;SDS011;19141;48.980;8.410;2022-07-23T16:03:49;7.32;;;6.50;;
32788;SDS011;19141;48.980;8.410;2022-07-23T16:06:14;7.43;;;6.53;;
32788;SDS011;19141;48.980;8.410;2022-07-23T16:08:40;7.13;;;5.83;;
32788;SDS011;19141;48.980;8.410;2022-07-23T16:11:06;7.28;;;6.57;;
32788;SDS011;19141;48.980;8.410;2022-07-23T16:13:32;7.57;;;6.55;;
32788;SDS011;19141;48.980;8.410;2022-07-23T16:15:57;7.13;;;6.43;;
32788;SDS011;19141;48.980;8.410;2022-07-23T16:18:23;8.27;;;7.05;;
32788;SDS011;19141;48.980;8.410;2022-07-23T16:20:50;9.13;;;7.85;;
32788;SDS011;19141;48.980;8.410;2022-07-23T16:23:17;6.82;;;6.07;;
32788;SDS011;19141;48.980;8.410;2022-07-23T16:25:43;7.03;;;5.82;;
32788;SDS011;19141;48.980;8.410;2022-07-23T16:28:08;6.55;;;5.95;;
32788;SDS011;19141;48.980;8.410;2022-07-23T16:30:34;6.47;;;5.57;;
32788;SDS011;19141;48.980;8.410;2022-07-23T16:33:01;7.67;;;6.50;;
32788;SDS011;19141;48.980;8.410;2022-07-23T16:35:26;10.70;;;6.40;;
32788;SDS011;19141;48.980;8.410;2022-07-23T16:37:52;7.32;;;6.63;;
32788;SDS011;19141;48.980;8.410;2022-07-23T16:40:18;6.90;;;6.18;;
32788;SDS011;19141;48.980;8.410;2022-07-23T16:42:45;8.55;;;6.32;;
32788;SDS011;19141;48.980;8.410;2022-07-23T16:45:11;6.22;;;5.63;;
32788;SDS011;19141;48.980;8.410;2022-07-23T16:47:36;7.28;;;6.57;;
32788;SDS011;19141;48.980;8.410;2022-07-23T16:50:03;8.00;;;5.97;;
32788;SDS011;19141;48.980;8.410;2022-07-23T16:52:30;7.25;;;6.20;;
32788;SDS011;19141;48.980;8.410;2022-07-23T16:54:56;7.97;;;6.70;;
32788;SDS011;19141;48.980;8.410;2022-07-23T16:57:21;7.78;;;7.07;;
32788;SDS011;19141;48.980;8.410;2022-07-23T16:59:47;6.28;;;5.70;;
32788;SDS011;19141;48.980;8.410;2022-07-23T17:02:13;6.68;;;5.97;;
32788;SDS011;19141;48.980;8.410;2022-07-23T17:04:38;8.82;;;7.85;;
32788;SDS011;19141;48.980;8.410;2022-07-23T17:07:04;11.32;;;8.85;;
32788;SDS011;19141;48.980;8.410;2022-07-23T17:09:30;9.80;;;6.13;;
32788;SDS011;19141;48.980;8.410;2022-07-23T17:11:59;7.10;;;6.13;;
32788;SDS011;19141;48.980;8.410;2022-07-23T17:14:24;7.13;;;6.30;;
32788;SDS011;19141;48.980;8.410;2022-07-23T17:16:50;8.10;;;5.93;;
32788;SDS011;19141;48.980;8.410;2022-07-23T17:19:15;8.02;;;6.20;;
32788;SDS011;19141;48.980;8.410;2022-07-23T17:21:41;7.35;;;6.65;;
32788;SDS011;19141;48.980;8.410;2022-07-23T17:24:06;8.75;;;7.28;;
32788;SDS011;19141;48.980;8.410;2022-07-23T17:26:32;10.52;;;9.45;;
32788;SDS011;19141;48.980;8.410;2022-07-23T17:28:58;10.10;;;9.05;;
32788;SDS011;19141;48.980;8.410;2022-07-23T17:31:24;9.52;;;7.43;;
32788;SDS011;19141;48.980;8.410;2022-07-23T17:33:50;7.22;;;5.97;;
32788;SDS011;19141;48.980;8.410;2022-07-23T17:36:16;6.70;;;5.90;;
32788;SDS011;19141;48.980;8.410;2022-07-23T17:38:41;10.85;;;9.15;;
32788;SDS011;19141;48.980;8.410;2022-07-23T17:41:07;10.25;;;6.72;;
32788;SDS011;19141;48.980;8.410;2022-07-23T17:43:32;9.32;;;8.23;;
32788;SDS011;19141;48.980;8.410;2022-07-23T17:45:57;8.15;;;6.22;;
32788;SDS011;19141;48.980;8.410;2022-07-23T17:48:23;6.43;;;5.82;;
32788;SDS011;19141;48.980;8.410;2022-07-23T17:50:50;6.68;;;5.95;;
32788;SDS011;19141;48.980;8.410;2022-07-23T17:53:16;7.65;;;6.47;;
32788;SDS011;19141;48.980;8.410;2022-07-23T17:55:42;9.65;;;7.13;;
32788;SDS011;19141;48.980;8.410;2022-07-23T17:58:07;8.05;;;7.07;;
32788;SDS011;19141;48.980;8.410;2022-07-23T18:00:34;6.72;;;6.05;;
32788;SDS011;19141;48.980;8.410;2022-07-23T18:03:01;7.60;;;6.13;;
32788;SDS011;19141;48.980;8.410;2022-07-23T18:05:27;6.53;;;5.50;;
32788;SDS011;19141;48.980;8.410;2022-07-23T18:07:52;6.22;;;5.32;;
32788;SDS011;19141;48.980;8.410;2022-07-23T18:10:18;7.25;;;5.63;;
32788;SDS011;19141;48.980;8.410;2022-07-23T18:12:43;7.28;;;5.18;;
32788;SDS011;19141;48.980;8.410;2022-07-23T18:15:09;5.25;;;4.68;;
32788;SDS011;19141;48.980;8.410;2022-07-23T18:17:36;5.82;;;4.70;;
32788;SDS011;19141;48.980;8.410;2022-07-23T18:20:05;6.35;;;5.05;;
32788;SDS011;19141;48.980;8.410;2022-07-23T18:22:32;6.28;;;5.32;;
32788;SDS011;19141;48.980;8.410;2022-07-23T18:24:58;6.13;;;5.15;;
32788;SDS011;19141;48.980;8.410;2022-07-23T18:27:23;7.15;;;5.30;;
32788;SDS011;19141;48.980;8.410;2022-07-23T18:29:49;5.70;;;5.07;;
32788;SDS011;19141;48.980;8.410;2022-07-23T18:32:14;6.18;;;4.80;;
32788;SDS011;19141;48.980;8.410;2022-07-23T18:34:40;4.93;;;4.32;;
32788;SDS011;19141;48.980;8.410;2022-07-23T18:37:07;7.20;;;5.18;;
32788;SDS011;19141;48.980;8.410;2022-07-23T18:39:33;5.15;;;4.65;;
32788;SDS011;19141;48.980;8.410;2022-07-23T18:42:00;4.90;;;4.40;;
32788;SDS011;19141;48.980;8.410;2022-07-23T18:44:26;6.40;;;5.30;;
32788;SDS011;19141;48.980;8.410;2022-07-23T18:46:52;6.68;;;5.00;;
32788;SDS011;19141;48.980;8.410;2022-07-23T18:49:17;6.47;;;5.22;;
32788;SDS011;19141;48.980;8.410;2022-07-23T18:51:42;5.32;;;4.82;;
32788;SDS011;19141;48.980;8.410;2022-07-23T18:54:08;5.75;;;4.93;;
32788;SDS011;19141;48.980;8.410;2022-07-23T18:56:35;5.22;;;4.72;;
32788;SDS011;19141;48.980;8.410;2022-07-23T18:59:01;5.57;;;5.03;;
32788;SDS011;19141;48.980;8.410;2022-07-23T19:01:27;6.13;;;4.85;;
32788;SDS011;19141;48.980;8.410;2022-07-23T19:03:55;5.90;;;4.38;;
32788;SDS011;19141;48.980;8.410;2022-07-23T19:06:22;7.82;;;4.95;;
32788;SDS011;19141;48.980;8.410;2022-07-23T19:08:48;5.93;;;5.35;;
32788;SDS011;19141;48.980;8.410;2022-07-23T19:11:14;5.68;;;5.07;;
32788;SDS011;19141;48.980;8.410;2022-07-23T19:13:39;6.78;;;4.93;;
32788;SDS011;19141;48.980;8.410;2022-07-23T19:16:05;6.13;;;5.53;;
32788;SDS011;19141;48.980;8.410;2022-07-23T19:18:31;6.95;;;5.03;;
32788;SDS011;19141;48.980;8.410;2022-07-23T19:20:56;7.40;;;5.30;;
32788;SDS011;19141;48.980;8.410;2022-07-23T19:23:22;5.65;;;5.13;;
32788;SDS011;19141;48.980;8.410;2022-07-23T19:25:47;5.53;;;5.03;;
32788;SDS011;19141;48.980;8.410;2022-07-23T19:28:13;6.28;;;4.85;;
32788;SDS011;19141;48.980;8.410;2022-07-23T19:30:38;6.22;;;5.10;;
32788;SDS011;19141;48.980;8.410;2022-07-23T19:33:04;8.07;;;4.78;;
32788;SDS011;19141;48.980;8.410;2022-07-23T19:35:30;8.05;;;5.50;;
32788;SDS011;19141;48.980;8.410;2022-07-23T19:37:57;6.20;;;5.05;;
32788;SDS011;19141;48.980;8.410;2022-07-23T19:40:23;5.93;;;5.22;;
32788;SDS011;19141;48.980;8.410;2022-07-23T19:42:49;7.75;;;5.28;;
32788;SDS011;19141;48.980;8.410;2022-07-23T19:45:15;7.43;;;4.97;;
32788;SDS011;19141;48.980;8.410;2022-07-23T19:47:41;7.03;;;4.97;;
32788;SDS011;19141;48.980;8.410;2022-07-23T19:50:12;7.53;;;5.22;;
32788;SDS011;19141;48.980;8.410;2022-07-23T19:52:39;7.65;;;6.15;;
32788;SDS011;19141;48.980;8.410;2022-07-23T19:55:06;6.72;;;5.97;;
32788;SDS011;19141;48.980;8.410;2022-07-23T19:57:33;8.35;;;7.50;;
32788;SDS011;19141;48.980;8.410;2022-07-23T19:59:59;8.85;;;6.47;;
32788;SDS011;19141;48.980;8.410;2022-07-23T20:02:24;8.40;;;6.78;;